createdAt,value
2019-04-04T00:00:37.828Z,23.30
2019-04-04T00:03:07.352Z,23.47
2019-04-04T00:05:36.719Z,23.13
2019-04-04T00:08:06.434Z,24.43
2019-04-04T00:10:37.444Z,22.90
2019-04-04T00:13:06.890Z,23.37
2019-04-04T00:15:41.787Z,23.57
2019-04-04T00:18:14.012Z,23.47
2019-04-04T00:20:46.231Z,23.20
2019-04-04T00:23:22.620Z,23.53
2019-04-04T00:25:56.450Z,23.83
2019-04-04T00:28:37.608Z,23.10
2019-04-04T00:31:07.501Z,23.07
2019-04-04T00:33:37.088Z,21.83
2019-04-04T00:36:06.925Z,22.97
2019-04-04T00:38:37.989Z,22.70
2019-04-04T00:41:08.100Z,21.90
2019-04-04T00:43:37.721Z,22.00
2019-04-04T00:46:07.210Z,22.77
2019-04-04T00:48:37.032Z,22.90
2019-04-04T00:51:07.925Z,21.70
2019-04-04T00:53:38.535Z,22.77
2019-04-04T00:56:08.306Z,22.63
2019-04-04T00:58:38.295Z,22.93
2019-04-04T01:01:08.254Z,22.97
2019-04-04T01:03:38.073Z,22.73
2019-04-04T01:06:07.881Z,22.30
2019-04-04T01:08:38.807Z,22.90
2019-04-04T01:11:08.872Z,23.17
2019-04-04T01:13:38.975Z,22.83
2019-04-04T01:16:11.978Z,22.70
2019-04-04T01:18:41.879Z,22.93
2019-04-04T01:21:11.823Z,23.07
2019-04-04T01:23:41.819Z,23.10
2019-04-04T01:26:11.816Z,22.73
2019-04-04T01:28:41.831Z,22.47
2019-04-04T01:31:14.631Z,23.43
2019-04-04T01:33:43.178Z,23.23
2019-04-04T01:36:13.194Z,22.60
2019-04-04T01:38:42.906Z,23.03
2019-04-04T01:41:12.670Z,22.00
2019-04-04T01:43:42.545Z,22.97
2019-04-04T01:46:13.043Z,23.10
2019-04-04T01:48:43.619Z,22.53
2019-04-04T01:51:13.330Z,22.17
2019-04-04T01:53:43.027Z,23.57
2019-04-04T01:56:12.655Z,22.47
2019-04-04T01:58:42.634Z,22.97
2019-04-04T02:01:12.287Z,22.57
2019-04-04T02:03:41.787Z,23.00
2019-04-04T02:06:11.811Z,23.10
2019-04-04T02:08:47.395Z,23.33
2019-04-04T02:11:16.944Z,23.63
2019-04-04T02:13:46.433Z,23.70
2019-04-04T02:16:16.940Z,25.00
2019-04-04T02:18:47.371Z,23.70
2019-04-04T02:21:17.373Z,23.23
2019-04-04T02:23:47.142Z,24.33
2019-04-04T02:26:22.900Z,23.77
2019-04-04T02:28:52.356Z,22.50
2019-04-04T02:31:22.187Z,23.60
2019-04-04T02:33:51.597Z,23.20
2019-04-04T02:36:21.017Z,23.33
2019-04-04T02:39:07.584Z,24.20
2019-04-04T02:41:37.025Z,22.73
2019-04-04T02:44:06.972Z,21.93
2019-04-04T02:46:36.396Z,22.67
2019-04-04T02:49:06.020Z,23.63
2019-04-04T02:51:40.239Z,22.20
2019-04-04T02:54:06.834Z,24.03
2019-04-04T02:56:36.463Z,23.40
2019-04-04T02:59:06.238Z,24.10
2019-04-04T03:01:35.777Z,24.67
2019-04-04T03:04:05.452Z,23.60
2019-04-04T03:06:34.957Z,23.87
2019-04-04T03:09:09.091Z,23.87
2019-04-04T03:11:37.395Z,23.30
2019-04-04T03:14:06.805Z,24.53
2019-04-04T03:16:36.150Z,23.17
2019-04-04T03:19:09.883Z,24.07
2019-04-04T03:21:36.552Z,23.07
2019-04-04T03:24:07.104Z,23.63
2019-04-04T03:26:36.677Z,23.97
2019-04-04T03:29:09.862Z,22.57
2019-04-04T03:31:38.847Z,23.97
2019-04-04T03:34:11.579Z,24.27
2019-04-04T03:36:39.567Z,22.80
2019-04-04T03:39:08.984Z,23.60
2019-04-04T03:41:38.400Z,26.60
2019-04-04T03:44:07.823Z,27.30
2019-04-04T03:46:38.878Z,27.63
2019-04-04T03:49:08.651Z,25.13
2019-04-04T03:51:38.331Z,24.70
2019-04-04T03:54:13.129Z,24.10
2019-04-04T03:56:42.742Z,22.23
2019-04-04T03:59:12.294Z,23.80
2019-04-04T04:01:45.497Z,24.10
2019-04-04T04:04:12.828Z,23.13
2019-04-04T04:06:43.200Z,23.23
2019-04-04T04:09:12.937Z,25.80
2019-04-04T04:11:42.429Z,25.70
2019-04-04T04:14:11.856Z,23.30
2019-04-04T04:16:41.301Z,23.50
2019-04-04T04:19:10.730Z,22.87
2019-04-04T04:21:42.755Z,22.27
2019-04-04T04:24:11.225Z,22.53
2019-04-04T04:26:41.895Z,22.80
2019-04-04T04:29:11.877Z,22.63
2019-04-04T04:31:41.400Z,23.37
2019-04-04T04:34:10.818Z,23.70
2019-04-04T04:36:40.241Z,23.47
2019-04-04T04:39:09.618Z,23.20
2019-04-04T04:41:39.003Z,22.60
2019-04-04T04:44:08.298Z,23.20
2019-04-04T04:46:37.961Z,22.17
2019-04-04T04:49:07.387Z,22.90
2019-04-04T04:51:36.793Z,22.50
2019-04-04T04:54:06.266Z,21.97
2019-04-04T04:56:35.772Z,22.37
2019-04-04T04:59:05.249Z,21.57
2019-04-04T05:01:34.929Z,21.20
2019-04-04T05:04:04.709Z,20.90
2019-04-04T05:06:35.609Z,21.20
2019-04-04T05:09:06.779Z,20.13
2019-04-04T05:11:36.198Z,21.17
2019-04-04T05:14:05.766Z,21.00
2019-04-04T05:16:35.907Z,20.57
2019-04-04T05:19:06.267Z,20.20
2019-04-04T05:21:35.759Z,21.43
2019-04-04T05:24:05.288Z,21.30
2019-04-04T05:26:35.191Z,20.60
2019-04-04T05:29:06.690Z,20.80
2019-04-04T05:31:36.083Z,20.07
2019-04-04T05:34:05.975Z,21.27
2019-04-04T05:36:37.071Z,20.13
2019-04-04T05:39:08.329Z,21.50
2019-04-04T05:41:40.936Z,20.53
2019-04-04T05:44:10.437Z,20.57
2019-04-04T05:46:39.893Z,19.93
2019-04-04T05:49:09.331Z,20.97
2019-04-04T05:51:38.860Z,21.13
2019-04-04T05:54:08.436Z,20.63
2019-04-04T05:56:38.202Z,22.10
2019-04-04T05:59:07.643Z,21.50
2019-04-04T06:01:37.414Z,22.03
2019-04-04T06:04:06.943Z,21.27
2019-04-04T06:06:36.404Z,21.27
2019-04-04T06:09:08.156Z,20.40
2019-04-04T06:11:37.570Z,20.03
2019-04-04T06:14:07.021Z,21.10
2019-04-04T06:16:36.493Z,20.17
2019-04-04T06:19:06.031Z,20.30
2019-04-04T06:21:35.495Z,20.30
2019-04-04T06:24:05.031Z,21.03
2019-04-04T06:26:36.111Z,20.67
2019-04-04T06:29:05.860Z,20.07
2019-04-04T06:31:37.065Z,19.33
2019-04-04T06:34:09.903Z,19.20
2019-04-04T06:36:37.710Z,19.53
2019-04-04T06:39:08.657Z,19.47
2019-04-04T06:41:38.277Z,19.93
2019-04-04T06:44:07.771Z,19.00
2019-04-04T06:46:37.221Z,19.37
2019-04-04T06:49:06.615Z,18.30
2019-04-04T06:51:36.052Z,20.27
2019-04-04T06:54:05.537Z,19.97
2019-04-04T06:56:35.033Z,20.43
2019-04-04T06:59:04.470Z,20.57
2019-04-04T07:01:33.879Z,23.10
2019-04-04T07:04:03.603Z,21.03
2019-04-04T07:06:33.002Z,20.17
2019-04-04T07:09:02.655Z,20.47
2019-04-04T07:11:34.803Z,20.60
2019-04-04T07:14:03.153Z,20.80
2019-04-04T07:16:36.213Z,19.57
2019-04-04T07:19:03.891Z,18.43
2019-04-04T07:21:33.337Z,18.03
2019-04-04T07:24:02.719Z,17.73
2019-04-04T07:26:32.016Z,17.80
2019-04-04T07:29:01.386Z,16.87
2019-04-04T07:31:33.275Z,17.20
2019-04-04T07:34:01.861Z,16.83
2019-04-04T07:36:31.269Z,18.00
2019-04-04T07:39:01.048Z,18.17
2019-04-04T07:41:30.633Z,17.17
2019-04-04T07:44:00.164Z,17.50
2019-04-04T07:46:29.602Z,17.20
2019-04-04T07:48:59.386Z,17.23
2019-04-04T07:51:30.279Z,17.10
2019-04-04T07:54:00.310Z,16.00
2019-04-04T07:56:30.157Z,16.83
2019-04-04T07:58:59.752Z,16.37
2019-04-04T08:01:29.290Z,16.90
2019-04-04T08:03:58.753Z,15.67
2019-04-04T08:06:28.146Z,15.70
2019-04-04T08:08:57.591Z,15.60
2019-04-04T08:11:27.393Z,15.23
2019-04-04T08:13:57.119Z,15.07
2019-04-04T08:16:26.880Z,15.77
2019-04-04T08:18:56.617Z,15.07
2019-04-04T08:21:27.771Z,15.80
2019-04-04T08:23:57.575Z,14.40
2019-04-04T08:26:27.275Z,14.80
2019-04-04T08:28:56.688Z,15.83
2019-04-04T08:31:26.320Z,27.57
2019-04-04T08:33:55.906Z,18.27
2019-04-04T08:36:25.337Z,16.27
2019-04-04T08:38:58.084Z,16.10
2019-04-04T08:41:27.754Z,15.50
2019-04-04T08:43:57.146Z,16.37
2019-04-04T08:46:26.775Z,15.80
2019-04-04T08:48:56.610Z,14.67
2019-04-04T08:51:26.579Z,15.17
2019-04-04T08:53:56.175Z,15.57
2019-04-04T08:56:25.559Z,15.27
2019-04-04T08:58:55.304Z,14.93
2019-04-04T09:01:24.808Z,14.63
2019-04-04T09:03:55.585Z,15.00
2019-04-04T09:06:28.105Z,15.70
2019-04-04T09:09:00.373Z,16.57
2019-04-04T09:11:31.357Z,15.43
2019-04-04T09:14:00.784Z,15.43
2019-04-04T09:16:30.307Z,14.80
2019-04-04T09:18:59.765Z,16.13
2019-04-04T09:21:35.225Z,15.23
2019-04-04T09:24:07.084Z,15.30
2019-04-04T09:26:36.431Z,16.83
2019-04-04T09:29:06.116Z,15.60
2019-04-04T09:31:35.583Z,16.20
2019-04-04T09:34:05.183Z,15.17
2019-04-04T09:36:34.598Z,16.23
2019-04-04T09:39:06.437Z,14.93
2019-04-04T09:41:36.179Z,15.30
2019-04-04T09:44:08.353Z,14.73
2019-04-04T09:46:39.627Z,15.80
2019-04-04T09:49:09.197Z,15.87
2019-04-04T09:51:38.698Z,15.07
2019-04-04T09:54:08.133Z,14.73
2019-04-04T09:56:37.868Z,14.80
2019-04-04T09:59:07.147Z,14.40
2019-04-04T10:01:36.760Z,13.80
2019-04-04T10:04:06.198Z,16.23
2019-04-04T10:06:35.840Z,13.67
2019-04-04T10:09:15.545Z,14.37
2019-04-04T10:11:38.762Z,14.83
2019-04-04T10:14:08.426Z,15.57
2019-04-04T10:16:37.887Z,14.10
2019-04-04T10:19:07.442Z,14.13
2019-04-04T10:21:36.895Z,14.13
2019-04-04T10:24:06.431Z,14.83
2019-04-04T10:26:35.900Z,15.03
2019-04-04T10:29:05.415Z,13.50
2019-04-04T10:31:35.106Z,13.23
2019-04-04T10:34:04.697Z,13.40
2019-04-04T10:36:34.211Z,12.87
2019-04-04T10:39:05.280Z,11.83
2019-04-04T10:41:34.965Z,12.73
2019-04-04T10:44:04.371Z,11.43
2019-04-04T10:46:33.837Z,12.00
2019-04-04T10:49:03.328Z,12.17
2019-04-04T10:51:32.734Z,11.77
2019-04-04T10:54:02.738Z,12.03
2019-04-04T10:56:32.555Z,12.10
2019-04-04T10:59:02.347Z,12.30
2019-04-04T11:01:31.919Z,12.10
2019-04-04T11:04:01.926Z,11.40
2019-04-04T11:06:31.390Z,12.53
2019-04-04T11:09:00.856Z,11.77
2019-04-04T11:11:30.282Z,12.17
2019-04-04T11:14:01.514Z,13.30
2019-04-04T11:16:31.003Z,12.23
2019-04-04T11:19:00.574Z,11.83
2019-04-04T11:21:30.455Z,11.37
2019-04-04T11:23:59.970Z,10.90
2019-04-04T11:26:29.561Z,11.90
2019-04-04T11:28:59.012Z,10.83
2019-04-04T11:31:28.797Z,11.60
2019-04-04T11:33:58.333Z,11.70
2019-04-04T11:36:27.757Z,11.10
2019-04-04T11:38:57.193Z,11.50
2019-04-04T11:41:26.702Z,11.20
2019-04-04T11:43:56.264Z,10.83
2019-04-04T11:46:28.720Z,10.17
2019-04-04T11:48:58.251Z,9.73
2019-04-04T11:51:27.884Z,9.87
2019-04-04T11:53:57.461Z,9.23
2019-04-04T11:56:27.004Z,9.57
2019-04-04T11:58:57.458Z,9.53
2019-04-04T12:01:27.829Z,8.43
2019-04-04T12:03:57.206Z,9.00
2019-04-04T12:06:26.720Z,9.17
2019-04-04T12:08:56.164Z,9.37
2019-04-04T12:11:25.656Z,9.30
2019-04-04T12:13:57.896Z,9.10
2019-04-04T12:16:27.430Z,9.30
2019-04-04T12:18:57.002Z,9.17
2019-04-04T12:21:26.516Z,8.83
2019-04-04T12:23:55.986Z,10.00
2019-04-04T12:26:25.528Z,9.37
2019-04-04T12:28:56.283Z,9.43
2019-04-04T12:31:25.835Z,9.60
2019-04-04T12:33:55.378Z,9.57
2019-04-04T12:36:27.975Z,9.20
2019-04-04T12:38:58.002Z,9.93
2019-04-04T12:41:28.363Z,9.90
2019-04-04T12:43:58.054Z,9.30
2019-04-04T12:46:27.562Z,10.10
2019-04-04T12:48:57.037Z,9.03
2019-04-04T12:51:26.495Z,10.10
2019-04-04T12:53:57.515Z,9.60
2019-04-04T12:56:27.116Z,9.87
2019-04-04T12:58:56.698Z,10.83
2019-04-04T13:01:26.185Z,10.03
2019-04-04T13:03:55.795Z,9.57
2019-04-04T13:06:25.275Z,9.80
2019-04-04T13:08:55.130Z,9.60
2019-04-04T13:11:27.836Z,10.10
2019-04-04T13:13:57.294Z,10.17
2019-04-04T13:16:26.775Z,10.23
2019-04-04T13:18:56.271Z,9.73
2019-04-04T13:21:28.165Z,10.53
2019-04-04T13:23:57.605Z,10.30
2019-04-04T13:26:27.456Z,10.60
2019-04-04T13:28:57.171Z,11.13
2019-04-04T13:31:26.872Z,10.67
2019-04-04T13:33:56.603Z,11.00
2019-04-04T13:36:25.955Z,10.53
2019-04-04T13:38:55.485Z,11.30
2019-04-04T13:41:25.030Z,9.53
2019-04-04T13:43:54.875Z,9.67
2019-04-04T13:46:25.909Z,10.73
2019-04-04T13:48:55.422Z,10.33
2019-04-04T13:51:25.649Z,10.37
2019-04-04T13:53:55.775Z,10.33
2019-04-04T13:56:25.190Z,9.73
2019-04-04T13:58:54.774Z,10.37
2019-04-04T14:01:25.485Z,11.00
2019-04-04T14:03:55.115Z,10.53
2019-04-04T14:06:24.551Z,10.50
2019-04-04T14:08:54.179Z,10.57
2019-04-04T14:11:23.694Z,10.60
2019-04-04T14:13:53.932Z,10.77
2019-04-04T14:16:23.439Z,9.83
2019-04-04T14:18:52.764Z,10.10
2019-04-04T14:21:22.166Z,10.20
2019-04-04T14:23:52.925Z,10.57
2019-04-04T14:26:22.944Z,10.23
2019-04-04T14:28:52.422Z,10.40
2019-04-04T14:31:22.216Z,10.83
2019-04-04T14:33:51.802Z,11.83
2019-04-04T14:36:21.347Z,11.10
2019-04-04T14:38:50.779Z,12.40
2019-04-04T14:41:20.321Z,11.57
2019-04-04T14:43:51.919Z,10.07
2019-04-04T14:46:21.387Z,10.90
2019-04-04T14:48:50.941Z,10.93
2019-04-04T14:51:20.381Z,10.60
2019-04-04T14:53:49.995Z,10.00
2019-04-04T14:56:19.486Z,10.27
2019-04-04T14:58:49.062Z,10.37
2019-04-04T15:01:18.910Z,10.37
2019-04-04T15:03:50.206Z,9.97
2019-04-04T15:06:19.622Z,10.73
2019-04-04T15:08:50.156Z,10.40
2019-04-04T15:11:24.219Z,10.37
2019-04-04T15:13:52.803Z,10.57
2019-04-04T15:16:22.350Z,9.73
2019-04-04T15:18:53.418Z,10.10
2019-04-04T15:21:22.932Z,10.63
2019-04-04T15:23:52.439Z,10.97
2019-04-04T15:26:21.965Z,10.83
2019-04-04T15:29:03.914Z,10.27
2019-04-04T15:31:34.461Z,11.30
2019-04-04T15:34:54.892Z,10.40
2019-04-04T15:37:24.315Z,10.07
2019-04-04T15:53:39.044Z,10.87
2019-04-04T15:56:08.697Z,10.57
2019-04-04T15:58:38.210Z,10.37
2019-04-04T16:01:07.860Z,11.60
2019-04-04T16:03:37.381Z,11.07
2019-04-04T16:06:06.983Z,11.17
2019-04-04T16:08:36.709Z,11.10
2019-04-04T16:11:06.509Z,11.37
2019-04-04T16:13:36.739Z,11.40
2019-04-04T16:16:06.350Z,10.77
2019-04-04T16:18:38.139Z,11.77
2019-04-04T16:21:07.697Z,10.57
2019-04-04T16:23:37.254Z,10.37
2019-04-04T16:26:06.858Z,11.20
2019-04-04T16:28:36.286Z,11.03
2019-04-04T16:31:05.843Z,11.33
2019-04-04T16:33:35.323Z,10.57
2019-04-04T16:36:05.597Z,11.73
2019-04-04T16:38:35.177Z,11.60
2019-04-04T16:41:05.085Z,11.50
2019-04-04T16:43:34.535Z,12.03
2019-04-04T16:46:05.088Z,11.60
2019-04-04T16:48:34.697Z,10.90
2019-04-04T16:51:04.372Z,12.07
2019-04-04T16:53:34.208Z,11.90
2019-04-04T16:56:04.340Z,12.07
2019-04-04T16:58:33.785Z,12.47
2019-04-04T17:01:04.436Z,12.00
2019-04-04T17:03:34.434Z,10.83
2019-04-04T17:06:04.529Z,11.97
2019-04-04T17:08:33.980Z,12.33
2019-04-04T17:11:04.520Z,12.40
2019-04-04T17:13:34.362Z,11.80
2019-04-04T17:16:03.915Z,12.20
2019-04-04T17:18:33.546Z,11.97
2019-04-04T17:21:03.018Z,12.43
2019-04-04T17:23:32.548Z,12.03
2019-04-04T17:26:03.150Z,12.27
2019-04-04T17:28:33.012Z,13.30
2019-04-04T17:31:02.824Z,12.80
2019-04-04T17:33:33.502Z,13.80
2019-04-04T17:36:03.594Z,12.77
2019-04-04T17:38:33.446Z,12.23
2019-04-04T17:41:03.198Z,12.93
2019-04-04T17:43:32.931Z,12.80
2019-04-04T17:46:04.451Z,13.40
2019-04-04T17:48:34.619Z,13.77
2019-04-04T17:51:04.566Z,12.73
2019-04-04T17:53:34.444Z,13.40
2019-04-04T17:56:04.063Z,12.43
2019-04-04T17:58:33.682Z,13.27
2019-04-04T18:01:04.623Z,13.57
2019-04-04T18:03:37.672Z,13.40
2019-04-04T18:06:07.195Z,13.30
2019-04-04T18:08:36.740Z,13.90
2019-04-04T18:11:06.383Z,14.33
2019-04-04T18:13:36.594Z,14.17
2019-04-04T18:16:09.114Z,14.57
2019-04-04T18:18:38.698Z,14.00
2019-04-04T18:21:08.288Z,14.93
2019-04-04T18:23:37.921Z,14.47
2019-04-04T18:26:07.390Z,14.90
2019-04-04T18:28:39.358Z,15.00
2019-04-04T18:31:08.208Z,15.73
2019-04-04T18:33:37.949Z,14.97
2019-04-04T18:36:07.683Z,14.83
2019-04-04T18:38:37.691Z,15.00
2019-04-04T18:41:07.274Z,15.27
2019-04-04T18:43:37.327Z,14.90
2019-04-04T18:46:07.178Z,16.40
2019-04-04T18:48:36.658Z,14.93
2019-04-04T18:51:06.166Z,15.10
2019-04-04T18:53:36.015Z,15.20
2019-04-04T18:56:05.601Z,15.13
2019-04-04T18:58:35.096Z,15.20
2019-04-04T19:01:04.977Z,15.73
2019-04-04T19:03:34.572Z,15.00
2019-04-04T19:06:04.063Z,15.27
2019-04-04T19:08:33.501Z,15.90
2019-04-04T19:11:03.075Z,15.80
2019-04-04T19:13:43.767Z,15.27
2019-04-04T19:16:03.772Z,15.50
2019-04-04T19:18:33.529Z,16.27
2019-04-04T19:21:03.240Z,15.93
2019-04-04T19:23:33.274Z,17.03
2019-04-04T19:26:03.843Z,16.10
2019-04-04T19:28:35.530Z,16.03
2019-04-04T19:31:05.875Z,16.80
2019-04-04T19:33:35.466Z,15.83
2019-04-04T19:36:05.488Z,16.93
2019-04-04T19:38:36.056Z,16.20
2019-04-04T19:41:06.405Z,16.90
2019-04-04T19:43:36.210Z,17.10
2019-04-04T19:46:08.945Z,19.67
2019-04-04T19:48:38.355Z,22.57
2019-04-04T19:51:07.859Z,23.07
2019-04-04T19:53:37.380Z,21.83
2019-04-04T19:56:06.862Z,21.73
2019-04-04T19:58:36.469Z,22.23
2019-04-04T20:01:06.351Z,22.90
2019-04-04T20:03:35.959Z,22.10
2019-04-04T20:06:05.418Z,25.43
2019-04-04T20:08:35.321Z,30.63
2019-04-04T20:11:04.774Z,28.40
2019-04-04T20:13:34.205Z,30.70
2019-04-04T20:16:05.672Z,29.47
2019-04-04T20:18:35.333Z,29.37
2019-04-04T20:21:04.896Z,30.37
2019-04-04T20:23:34.826Z,30.97
2019-04-04T20:26:04.563Z,30.77
2019-04-04T20:28:36.694Z,29.27
2019-04-04T20:31:08.500Z,31.60
2019-04-04T20:33:38.059Z,34.80
2019-04-04T20:36:07.573Z,34.57
2019-04-04T20:38:37.182Z,31.60
2019-04-04T20:41:07.017Z,27.43
2019-04-04T20:43:43.285Z,26.30
2019-04-04T20:46:07.659Z,25.90
2019-04-04T20:48:37.581Z,25.47
2019-04-04T20:51:07.034Z,24.40
2019-04-04T20:53:36.737Z,23.70
2019-04-04T20:56:06.111Z,24.40
2019-04-04T20:58:37.585Z,25.00
2019-04-04T21:01:07.134Z,26.93
2019-04-04T21:03:36.582Z,26.03
2019-04-04T21:06:06.090Z,24.13
2019-04-04T21:08:36.937Z,25.57
2019-04-04T21:11:06.614Z,27.07
2019-04-04T21:13:36.215Z,27.83
2019-04-04T21:16:05.863Z,28.60
2019-04-04T21:18:35.192Z,28.70
2019-04-04T21:21:04.790Z,27.83
2019-04-04T21:23:34.239Z,26.63
2019-04-04T21:26:04.032Z,26.60
2019-04-04T21:28:33.700Z,25.43
2019-04-04T21:31:03.295Z,24.87
2019-04-04T21:33:33.002Z,23.57
2019-04-04T21:36:02.449Z,25.00
2019-04-04T21:38:31.988Z,23.90
2019-04-04T21:41:01.523Z,23.93
2019-04-04T21:43:31.004Z,24.50
2019-04-04T21:46:00.685Z,24.40
2019-04-04T21:48:30.112Z,24.97
2019-04-04T21:50:59.699Z,24.60
2019-04-04T21:53:29.223Z,24.97
2019-04-04T21:55:58.863Z,26.63
2019-04-04T21:58:28.470Z,25.73
2019-04-04T22:00:58.486Z,26.63
2019-04-04T22:03:28.019Z,27.23
2019-04-04T22:05:57.602Z,26.93
2019-04-04T22:08:27.217Z,23.97
2019-04-04T22:10:56.675Z,24.00
2019-04-04T22:13:28.854Z,23.37
2019-04-04T22:15:58.385Z,23.37
2019-04-04T22:18:27.809Z,23.60
2019-04-04T22:20:57.556Z,23.57
2019-04-04T22:23:26.981Z,22.20
2019-04-04T22:25:56.409Z,23.50
2019-04-04T22:28:25.759Z,23.20
2019-04-04T22:30:55.316Z,23.10
2019-04-04T22:33:24.701Z,23.20
2019-04-04T22:35:54.185Z,23.27
2019-04-04T22:38:23.643Z,23.77
2019-04-04T22:40:53.209Z,22.13
2019-04-04T22:43:24.987Z,23.30
2019-04-04T22:45:54.552Z,22.50
2019-04-04T22:48:23.962Z,22.83
2019-04-04T22:50:53.465Z,21.90
2019-04-04T22:53:23.123Z,22.10
2019-04-04T22:55:52.593Z,21.63
2019-04-04T22:58:28.100Z,21.60
2019-04-04T23:00:53.114Z,22.13
2019-04-04T23:03:23.422Z,21.43
2019-04-04T23:05:52.855Z,21.67
2019-04-04T23:08:22.246Z,20.30
2019-04-04T23:10:51.795Z,21.77
2019-04-04T23:13:21.228Z,21.07
2019-04-04T23:15:50.680Z,22.17
2019-04-04T23:18:20.052Z,21.83
2019-04-04T23:20:49.492Z,21.10
2019-04-04T23:23:18.915Z,21.77
2019-04-04T23:25:48.469Z,22.10
2019-04-04T23:28:17.945Z,22.03
2019-04-04T23:30:47.558Z,21.50
2019-04-04T23:33:17.006Z,21.07
2019-04-04T23:35:47.167Z,21.50
2019-04-04T23:38:16.815Z,20.83
2019-04-04T23:40:46.223Z,21.00
2019-04-04T23:43:15.621Z,20.47
2019-04-04T23:45:45.548Z,21.10
2019-04-04T23:48:15.244Z,20.63
2019-04-04T23:50:44.661Z,20.30
2019-04-04T23:53:14.099Z,20.43
2019-04-04T23:55:43.635Z,19.27
2019-04-04T23:58:13.275Z,18.87
